createdAt,value
2018-06-19T00:00:37.341Z,6.90
2018-06-19T00:03:06.135Z,7.83
2018-06-19T00:05:34.637Z,8.43
2018-06-19T00:08:03.394Z,7.97
2018-06-19T00:10:32.596Z,7.03
2018-06-19T00:13:01.108Z,9.07
2018-06-19T00:15:29.591Z,6.90
2018-06-19T00:18:04.334Z,7.23
2018-06-19T00:20:33.268Z,8.87
2018-06-19T00:23:02.392Z,7.73
2018-06-19T00:25:31.232Z,6.10
2018-06-19T00:27:59.755Z,6.43
2018-06-19T00:30:28.433Z,6.70
2018-06-19T00:32:57.170Z,7.27
2018-06-19T00:35:25.791Z,7.17
2018-06-19T00:37:54.331Z,6.50
2018-06-19T00:40:22.864Z,5.63
2018-06-19T00:42:51.734Z,8.17
2018-06-19T00:45:20.229Z,6.33
2018-06-19T00:47:48.945Z,5.63
2018-06-19T00:50:17.446Z,5.50
2018-06-19T00:52:46.000Z,6.97
2018-06-19T00:55:14.499Z,5.60
2018-06-19T00:57:42.986Z,4.80
2018-06-19T01:00:11.589Z,7.70
2018-06-19T01:02:40.140Z,4.47
2018-06-19T01:05:09.163Z,4.00
2018-06-19T01:07:37.687Z,7.37
2018-06-19T01:10:06.224Z,6.50
2018-06-19T01:12:35.036Z,5.73
2018-06-19T01:15:03.673Z,7.63
2018-06-19T01:17:32.319Z,5.03
2018-06-19T01:20:00.849Z,4.23
2018-06-19T01:22:29.489Z,5.03
2018-06-19T01:24:58.122Z,5.77
2018-06-19T01:27:26.608Z,5.23
2018-06-19T01:29:55.130Z,4.80
2018-06-19T01:32:23.660Z,3.37
2018-06-19T01:34:52.232Z,5.43
2018-06-19T01:37:20.829Z,4.20
2018-06-19T01:39:49.332Z,4.87
2018-06-19T01:42:17.929Z,4.33
2018-06-19T01:44:46.527Z,7.57
2018-06-19T01:47:14.972Z,8.17
2018-06-19T01:49:43.455Z,4.50
2018-06-19T01:52:11.960Z,8.27
2018-06-19T01:54:40.556Z,5.53
2018-06-19T01:57:09.190Z,6.00
2018-06-19T01:59:37.685Z,4.60
2018-06-19T02:02:06.220Z,6.73
2018-06-19T02:04:34.810Z,5.50
2018-06-19T02:07:03.364Z,5.27
2018-06-19T02:09:32.050Z,3.87
2018-06-19T02:12:00.607Z,4.17
2018-06-19T02:14:29.179Z,4.70
2018-06-19T02:16:57.678Z,4.47
2018-06-19T02:19:26.214Z,6.17
2018-06-19T02:21:54.786Z,6.70
2018-06-19T02:24:23.436Z,6.33
2018-06-19T02:26:51.952Z,5.23
2018-06-19T02:29:20.472Z,4.03
2018-06-19T02:31:49.067Z,4.70
2018-06-19T02:34:18.108Z,5.13
2018-06-19T02:36:46.694Z,4.47
2018-06-19T02:39:15.188Z,7.27
2018-06-19T02:41:43.729Z,4.13
2018-06-19T02:44:12.216Z,4.20
2018-06-19T02:46:40.759Z,5.30
2018-06-19T02:49:09.508Z,4.37
2018-06-19T02:51:38.021Z,6.00
2018-06-19T02:54:06.548Z,4.37
2018-06-19T02:56:35.149Z,4.77
2018-06-19T02:59:03.647Z,3.77
2018-06-19T03:01:32.565Z,4.50
2018-06-19T03:04:01.032Z,6.43
2018-06-19T03:06:30.024Z,3.93
2018-06-19T03:08:58.540Z,6.30
2018-06-19T03:11:27.118Z,6.83
2018-06-19T03:13:55.666Z,5.90
2018-06-19T03:16:24.155Z,4.70
2018-06-19T03:18:52.732Z,3.97
2018-06-19T03:21:21.261Z,5.10
2018-06-19T03:23:50.075Z,4.77
2018-06-19T03:26:18.587Z,6.60
2018-06-19T03:28:47.116Z,4.53
2018-06-19T03:31:15.972Z,4.23
2018-06-19T03:33:44.501Z,8.17
2018-06-19T03:36:13.340Z,4.87
2018-06-19T03:38:41.815Z,4.70
2018-06-19T03:41:10.577Z,4.93
2018-06-19T03:43:39.076Z,3.53
2018-06-19T03:46:07.819Z,5.77
2018-06-19T03:48:36.318Z,5.47
2018-06-19T03:51:05.040Z,6.07
2018-06-19T03:53:33.778Z,5.53
2018-06-19T03:56:02.425Z,4.83
2018-06-19T03:58:30.914Z,8.70
2018-06-19T04:00:59.659Z,6.23
2018-06-19T04:03:28.174Z,4.97
2018-06-19T04:05:56.713Z,5.17
2018-06-19T04:08:25.244Z,4.80
2018-06-19T04:10:53.763Z,11.47
2018-06-19T04:13:22.256Z,11.40
2018-06-19T04:15:50.829Z,8.83
2018-06-19T04:18:19.410Z,10.03
2018-06-19T04:20:47.906Z,10.13
2018-06-19T04:23:16.071Z,11.67
2018-06-19T04:25:44.596Z,13.67
2018-06-19T04:28:13.334Z,13.57
2018-06-19T04:30:41.895Z,10.70
2018-06-19T04:33:10.723Z,13.43
2018-06-19T04:35:39.354Z,12.20
2018-06-19T04:38:08.222Z,14.83
2018-06-19T04:40:36.715Z,14.00
2018-06-19T04:43:05.598Z,12.60
2018-06-19T04:45:34.122Z,11.53
2018-06-19T04:48:02.658Z,11.70
2018-06-19T04:50:31.473Z,14.70
2018-06-19T04:53:00.052Z,11.93
2018-06-19T04:55:28.683Z,12.53
2018-06-19T04:57:57.164Z,9.80
2018-06-19T05:00:25.401Z,12.43
2018-06-19T05:02:54.065Z,8.93
2018-06-19T05:05:22.608Z,9.43
2018-06-19T05:07:51.288Z,12.03
2018-06-19T05:10:19.831Z,10.93
2018-06-19T05:12:48.442Z,10.57
2018-06-19T05:15:17.078Z,11.63
2018-06-19T05:17:45.605Z,9.73
2018-06-19T05:20:14.663Z,11.13
2018-06-19T05:22:43.604Z,9.57
2018-06-19T05:25:12.188Z,8.57
2018-06-19T05:27:40.718Z,10.43
2018-06-19T05:30:09.619Z,13.03
2018-06-19T05:32:38.628Z,10.70
2018-06-19T05:35:07.611Z,9.50
2018-06-19T05:37:36.042Z,9.90
2018-06-19T05:40:04.543Z,8.63
2018-06-19T05:42:33.176Z,10.80
2018-06-19T05:45:01.691Z,7.90
2018-06-19T05:47:30.464Z,8.27
2018-06-19T05:49:58.727Z,8.17
2018-06-19T05:52:27.362Z,10.87
2018-06-19T05:54:56.262Z,10.40
2018-06-19T05:57:24.924Z,12.47
2018-06-19T05:59:53.445Z,10.20
2018-06-19T06:02:22.046Z,11.60
2018-06-19T06:04:50.631Z,11.53
2018-06-19T06:07:20.471Z,11.17
2018-06-19T06:09:49.368Z,10.93
2018-06-19T06:12:18.030Z,12.03
2018-06-19T06:14:46.709Z,10.90
2018-06-19T06:17:15.574Z,9.77
2018-06-19T06:19:44.160Z,11.70
2018-06-19T06:22:12.796Z,9.13
2018-06-19T06:24:41.197Z,11.60
2018-06-19T06:27:09.736Z,13.73
2018-06-19T06:29:38.270Z,10.70
2018-06-19T06:32:07.013Z,10.93
2018-06-19T06:34:35.513Z,11.00
2018-06-19T06:37:04.072Z,10.30
2018-06-19T06:39:36.685Z,9.87
2018-06-19T06:42:05.345Z,9.90
2018-06-19T06:44:34.005Z,13.33
2018-06-19T06:47:02.697Z,13.60
2018-06-19T06:49:37.773Z,11.47
2018-06-19T06:52:06.592Z,11.67
2018-06-19T06:54:35.276Z,12.67
2018-06-19T06:57:03.952Z,10.50
2018-06-19T06:59:32.496Z,15.53
2018-06-19T07:02:00.899Z,13.87
2018-06-19T07:04:29.688Z,11.93
2018-06-19T07:06:58.259Z,14.37
2018-06-19T07:09:26.751Z,14.57
2018-06-19T07:11:55.435Z,16.03
2018-06-19T07:14:24.051Z,15.30
2018-06-19T07:16:52.735Z,13.87
2018-06-19T07:19:21.517Z,15.53
2018-06-19T07:21:49.988Z,16.93
2018-06-19T07:24:18.864Z,14.17
2018-06-19T07:26:47.420Z,14.33
2018-06-19T07:29:15.987Z,14.97
2018-06-19T07:31:44.910Z,18.30
2018-06-19T07:34:13.490Z,15.10
2018-06-19T07:36:41.973Z,17.60
2018-06-19T07:39:11.164Z,16.87
2018-06-19T07:41:39.863Z,15.77
2018-06-19T07:44:08.811Z,18.20
2018-06-19T07:46:37.299Z,23.70
2018-06-19T07:49:05.914Z,20.83
2018-06-19T07:51:34.551Z,18.83
2018-06-19T07:54:04.275Z,20.83
2018-06-19T07:56:32.843Z,19.33
2018-06-19T07:59:05.429Z,20.43
2018-06-19T08:01:33.963Z,20.80
2018-06-19T08:04:02.473Z,19.90
2018-06-19T08:06:31.027Z,21.13
2018-06-19T08:08:59.615Z,19.53
2018-06-19T08:11:28.408Z,19.23
2018-06-19T08:13:57.055Z,19.63
2018-06-19T08:16:26.012Z,23.07
2018-06-19T08:18:54.372Z,22.13
2018-06-19T08:21:23.313Z,24.40
2018-06-19T08:23:51.828Z,25.73
2018-06-19T08:26:20.618Z,21.83
2018-06-19T08:28:49.117Z,22.33
2018-06-19T08:31:17.776Z,25.07
2018-06-19T08:33:46.546Z,23.67
2018-06-19T08:36:15.392Z,26.87
2018-06-19T08:38:44.149Z,25.47
2018-06-19T08:41:12.674Z,26.53
2018-06-19T08:43:41.249Z,23.53
2018-06-19T08:46:09.852Z,24.20
2018-06-19T08:48:38.507Z,26.93
2018-06-19T08:51:09.990Z,25.60
2018-06-19T08:53:38.681Z,27.37
2018-06-19T08:56:07.179Z,25.03
2018-06-19T08:58:35.952Z,23.50
2018-06-19T09:01:04.914Z,25.73
2018-06-19T09:03:33.460Z,27.17
2018-06-19T09:06:02.057Z,27.03
2018-06-19T09:08:30.943Z,23.53
2018-06-19T09:10:59.566Z,24.87
2018-06-19T09:13:28.178Z,20.97
2018-06-19T09:15:56.841Z,22.17
2018-06-19T09:18:25.591Z,17.40
2018-06-19T09:20:54.518Z,23.57
2018-06-19T09:23:23.250Z,20.23
2018-06-19T09:25:51.842Z,21.10
2018-06-19T09:28:20.343Z,20.97
2018-06-19T09:30:48.980Z,17.20
2018-06-19T09:33:17.769Z,19.37
2018-06-19T09:35:46.295Z,19.93
2018-06-19T09:38:15.029Z,19.13
2018-06-19T09:40:43.771Z,21.40
2018-06-19T09:43:12.661Z,24.00
2018-06-19T09:45:41.422Z,23.33
2018-06-19T09:48:09.927Z,23.00
2018-06-19T09:50:38.435Z,21.17
2018-06-19T09:53:07.018Z,25.80
2018-06-19T09:55:35.783Z,21.60
2018-06-19T09:58:05.047Z,24.67
2018-06-19T10:00:34.909Z,21.37
2018-06-19T10:03:04.348Z,24.10
2018-06-19T10:05:33.525Z,20.20
2018-06-19T10:08:02.750Z,20.57
2018-06-19T10:10:31.621Z,25.63
2018-06-19T10:12:59.810Z,19.07
2018-06-19T10:15:28.428Z,24.07
2018-06-19T10:17:56.936Z,21.17
2018-06-19T10:20:25.535Z,19.37
2018-06-19T10:22:54.361Z,20.70
2018-06-19T10:25:22.973Z,17.93
2018-06-19T10:27:51.548Z,16.70
2018-06-19T10:30:20.499Z,17.40
2018-06-19T10:32:48.900Z,15.77
2018-06-19T10:35:17.435Z,17.23
2018-06-19T10:37:46.012Z,14.23
2018-06-19T10:40:14.684Z,15.00
2018-06-19T10:42:43.444Z,18.40
2018-06-19T10:45:12.014Z,12.00
2018-06-19T10:47:40.515Z,13.57
2018-06-19T10:50:09.083Z,12.10
2018-06-19T10:52:37.658Z,11.40
2018-06-19T10:55:06.116Z,11.13
2018-06-19T10:57:34.856Z,11.27
2018-06-19T11:00:03.465Z,12.00
2018-06-19T11:02:32.273Z,15.60
2018-06-19T11:05:00.892Z,13.00
2018-06-19T11:07:30.982Z,11.57
2018-06-19T11:10:01.930Z,16.70
2018-06-19T11:12:30.580Z,12.23
2018-06-19T11:14:59.431Z,14.23
2018-06-19T11:17:27.923Z,13.87
2018-06-19T11:19:56.438Z,16.40
2018-06-19T11:22:25.133Z,15.70
2018-06-19T11:24:53.983Z,16.43
2018-06-19T11:27:22.757Z,20.50
2018-06-19T11:29:51.469Z,19.33
2018-06-19T11:32:20.146Z,18.97
2018-06-19T11:34:49.387Z,17.93
2018-06-19T11:37:18.120Z,17.27
2018-06-19T11:39:46.641Z,13.50
2018-06-19T11:42:15.195Z,18.73
2018-06-19T11:44:43.920Z,14.27
2018-06-19T11:47:12.498Z,15.87
2018-06-19T11:49:41.076Z,15.00
2018-06-19T11:52:09.921Z,14.67
2018-06-19T11:54:38.619Z,13.77
2018-06-19T11:57:07.207Z,14.33
2018-06-19T11:59:35.751Z,12.20
2018-06-19T12:02:04.215Z,11.20
2018-06-19T12:04:32.915Z,9.67
2018-06-19T12:07:01.605Z,9.70
2018-06-19T12:09:30.179Z,9.73
2018-06-19T12:11:59.083Z,10.27
2018-06-19T12:14:27.667Z,10.80
2018-06-19T12:16:56.294Z,9.90
2018-06-19T12:19:24.957Z,7.67
2018-06-19T12:21:53.825Z,8.23
2018-06-19T12:24:22.454Z,8.40
2018-06-19T12:26:50.982Z,10.10
2018-06-19T12:29:19.534Z,9.37
2018-06-19T12:31:48.440Z,13.60
2018-06-19T12:34:17.221Z,10.70
2018-06-19T12:36:45.753Z,10.47
2018-06-19T12:39:14.447Z,9.23
2018-06-19T12:41:44.273Z,7.73
2018-06-19T12:44:13.175Z,8.80
2018-06-19T12:46:42.356Z,9.97
2018-06-19T12:49:11.575Z,6.90
2018-06-19T12:51:54.026Z,8.83
2018-06-19T12:54:31.908Z,6.93
2018-06-19T12:57:00.837Z,5.80
2018-06-19T12:59:29.766Z,6.43
2018-06-19T13:01:58.777Z,7.60
2018-06-19T13:04:38.721Z,6.03
2018-06-19T13:07:07.531Z,6.05
2018-06-19T13:09:36.653Z,5.37
2018-06-19T13:12:07.371Z,5.55
2018-06-19T13:14:40.734Z,6.70
2018-06-19T13:17:21.022Z,6.27
2018-06-19T13:20:00.829Z,5.67
2018-06-19T13:22:29.717Z,7.00
2018-06-19T13:24:58.506Z,6.80
2018-06-19T13:27:27.055Z,8.00
2018-06-19T13:30:10.863Z,7.17
2018-06-19T13:32:39.824Z,8.03
2018-06-19T13:35:08.214Z,7.93
2018-06-19T13:37:36.823Z,6.80
2018-06-19T13:41:29.677Z,6.73
2018-06-19T13:44:12.173Z,4.80
2018-06-19T13:46:40.773Z,5.27
2018-06-19T13:49:09.761Z,5.10
2018-06-19T13:51:38.489Z,4.63
2018-06-19T13:54:07.083Z,4.43
2018-06-19T13:56:50.304Z,4.77
2018-06-19T13:59:18.841Z,4.43
2018-06-19T14:01:47.727Z,3.90
2018-06-19T14:04:16.544Z,3.30
2018-06-19T14:06:45.291Z,3.50
2018-06-19T14:09:30.291Z,3.83
2018-06-19T14:12:15.275Z,3.33
2018-06-19T14:14:44.120Z,3.30
2018-06-19T14:17:12.889Z,3.10
2018-06-19T14:19:41.442Z,3.40
2018-06-19T14:22:09.944Z,3.07
2018-06-19T14:24:38.651Z,4.73
2018-06-19T14:27:07.030Z,4.23
2018-06-19T14:29:35.787Z,2.77
2018-06-19T14:32:04.384Z,2.37
2018-06-19T14:34:33.544Z,2.40
2018-06-19T14:37:02.326Z,2.43
2018-06-19T14:39:31.178Z,2.67
2018-06-19T14:42:00.043Z,2.73
2018-06-19T14:44:28.774Z,2.20
2018-06-19T14:46:57.543Z,3.13
2018-06-19T14:49:26.038Z,3.07
2018-06-19T14:51:54.918Z,4.40
2018-06-19T14:54:23.485Z,3.27
2018-06-19T14:56:52.075Z,4.23
2018-06-19T14:59:20.952Z,5.50
2018-06-19T15:01:49.894Z,3.80
2018-06-19T15:04:18.385Z,4.57
2018-06-19T15:06:47.623Z,4.97
2018-06-19T15:09:16.356Z,3.50
2018-06-19T15:11:45.357Z,3.73
2018-06-19T15:14:14.327Z,3.83
2018-06-19T15:16:42.927Z,3.47
2018-06-19T15:19:11.560Z,4.30
2018-06-19T15:21:40.077Z,3.50
2018-06-19T15:24:09.178Z,4.23
2018-06-19T15:26:37.534Z,4.97
2018-06-19T15:29:06.352Z,5.07
2018-06-19T15:31:35.359Z,3.77
2018-06-19T15:34:04.203Z,6.70
2018-06-19T15:36:32.805Z,6.53
2018-06-19T15:39:01.802Z,5.37
2018-06-19T15:41:30.764Z,4.57
2018-06-19T15:43:59.431Z,4.50
2018-06-19T15:46:27.997Z,3.87
2018-06-19T15:48:56.643Z,3.90
2018-06-19T15:51:25.496Z,6.73
2018-06-19T15:53:54.054Z,5.67
2018-06-19T15:56:22.757Z,4.93
2018-06-19T15:58:51.404Z,5.03
2018-06-19T16:01:20.260Z,3.40
2018-06-19T16:03:49.139Z,2.73
2018-06-19T16:06:17.549Z,3.50
2018-06-19T16:08:46.462Z,4.47
2018-06-19T16:11:15.142Z,4.17
2018-06-19T16:13:44.031Z,3.60
2018-06-19T16:16:12.845Z,5.83
2018-06-19T16:18:41.742Z,5.77
2018-06-19T16:21:10.571Z,3.33
2018-06-19T16:23:39.603Z,5.57
2018-06-19T16:26:08.107Z,4.20
2018-06-19T16:28:36.723Z,5.20
2018-06-19T16:31:05.530Z,3.90
2018-06-19T16:33:33.891Z,4.37
2018-06-19T16:36:03.124Z,5.23
2018-06-19T16:38:31.668Z,5.20
2018-06-19T16:41:00.235Z,3.93
2018-06-19T16:43:28.759Z,4.30
2018-06-19T16:45:57.259Z,4.87
2018-06-19T16:48:25.841Z,3.27
2018-06-19T16:50:54.603Z,4.47
2018-06-19T16:53:23.659Z,5.43
2018-06-19T16:55:52.392Z,3.40
2018-06-19T16:58:21.290Z,3.65
2018-06-19T17:00:50.015Z,4.85
2018-06-19T17:03:18.684Z,6.30
2018-06-19T17:05:47.754Z,4.27
2018-06-19T17:08:16.769Z,5.17
2018-06-19T17:10:45.844Z,3.47
2018-06-19T17:13:14.454Z,4.67
2018-06-19T17:15:43.235Z,4.17
2018-06-19T17:18:12.191Z,3.50
2018-06-19T17:20:41.051Z,4.80
2018-06-19T17:23:10.028Z,3.93
2018-06-19T17:25:38.728Z,5.43
2018-06-19T17:28:08.262Z,4.20
2018-06-19T17:30:37.008Z,5.23
2018-06-19T17:33:05.733Z,4.33
2018-06-19T17:35:34.446Z,4.93
2018-06-19T17:38:03.395Z,4.43
2018-06-19T17:40:32.160Z,4.47
2018-06-19T17:43:00.911Z,4.20
2018-06-19T17:45:29.570Z,3.90
2018-06-19T17:47:58.417Z,5.30
2018-06-19T17:50:27.303Z,6.07
2018-06-19T17:52:56.089Z,4.40
2018-06-19T17:55:24.753Z,4.83
2018-06-19T17:57:53.363Z,4.90
2018-06-19T18:00:22.091Z,5.23
2018-06-19T18:02:50.871Z,4.77
2018-06-19T18:05:19.635Z,4.30
2018-06-19T18:07:48.450Z,4.90
2018-06-19T18:10:17.317Z,4.83
2018-06-19T18:12:46.021Z,6.13
2018-06-19T18:15:14.719Z,5.93
2018-06-19T18:17:43.533Z,5.57
2018-06-19T18:20:12.391Z,5.17
2018-06-19T18:22:40.936Z,5.83
2018-06-19T18:25:09.607Z,5.73
2018-06-19T18:27:38.458Z,5.43
2018-06-19T18:30:07.355Z,7.60
2018-06-19T18:32:36.261Z,7.33
2018-06-19T18:35:05.165Z,5.50
2018-06-19T18:37:34.194Z,4.80
2018-06-19T18:40:03.101Z,5.80
2018-06-19T18:42:31.757Z,6.97
2018-06-19T18:45:00.555Z,6.87
2018-06-19T18:47:29.475Z,7.10
2018-06-19T18:49:58.076Z,5.13
2018-06-19T18:52:27.265Z,5.27
2018-06-19T18:54:56.262Z,6.80
2018-06-19T18:57:24.980Z,5.30
2018-06-19T18:59:53.988Z,5.33
2018-06-19T19:02:23.128Z,6.47
2018-06-19T19:04:51.921Z,5.03
2018-06-19T19:07:21.115Z,5.17
2018-06-19T19:09:55.118Z,7.03
2018-06-19T19:12:23.746Z,6.90
2018-06-19T19:14:58.715Z,6.90
2018-06-19T19:17:32.918Z,7.30
2018-06-19T19:20:02.008Z,6.47
2018-06-19T19:22:31.300Z,7.53
2018-06-19T19:25:00.142Z,6.93
2018-06-19T19:27:34.295Z,7.93
2018-06-19T19:30:03.217Z,8.33
2018-06-19T19:32:31.823Z,6.27
2018-06-19T19:35:00.861Z,6.60
2018-06-19T19:37:35.408Z,6.57
2018-06-19T19:40:04.233Z,7.40
2018-06-19T19:42:33.109Z,5.93
2018-06-19T19:45:01.985Z,6.43
2018-06-19T19:47:35.956Z,8.03
2018-06-19T19:50:05.290Z,8.57
2018-06-19T19:52:33.819Z,6.53
2018-06-19T19:55:02.578Z,6.50
2018-06-19T19:57:36.825Z,6.07
2018-06-19T20:00:08.100Z,7.23
2018-06-19T20:02:36.855Z,6.80
2018-06-19T20:05:05.786Z,6.33
2018-06-19T20:07:34.379Z,8.23
2018-06-19T20:10:03.387Z,6.17
2018-06-19T20:12:32.124Z,10.33
2018-06-19T20:15:00.859Z,6.53
2018-06-19T20:17:30.045Z,6.27
2018-06-19T20:19:58.694Z,6.03
2018-06-19T20:22:27.455Z,6.17
2018-06-19T20:24:56.177Z,5.60
2018-06-19T20:27:24.988Z,7.57
2018-06-19T20:29:53.492Z,6.17
2018-06-19T20:32:22.340Z,5.87
2018-06-19T20:34:51.185Z,5.70
2018-06-19T20:37:19.917Z,7.30
2018-06-19T20:39:48.571Z,6.47
2018-06-19T20:42:17.355Z,7.97
2018-06-19T20:44:45.952Z,7.10
2018-06-19T20:47:14.773Z,7.57
2018-06-19T20:49:43.497Z,6.20
2018-06-19T20:52:12.801Z,5.87
2018-06-19T20:54:41.793Z,5.90
2018-06-19T20:57:10.654Z,6.70
2018-06-19T20:59:39.272Z,6.47
2018-06-19T21:02:07.908Z,10.43
2018-06-19T21:04:36.846Z,6.67
2018-06-19T21:07:05.708Z,6.80
2018-06-19T21:09:34.620Z,12.17
2018-06-19T21:12:03.617Z,10.17
2018-06-19T21:14:32.312Z,8.27
2018-06-19T21:17:00.938Z,6.93
2018-06-19T21:19:29.736Z,6.83
2018-06-19T21:21:58.299Z,7.73
2018-06-19T21:24:26.828Z,8.10
2018-06-19T21:26:55.526Z,6.03
2018-06-19T21:29:24.297Z,8.43
2018-06-19T21:31:52.968Z,6.43
2018-06-19T21:34:21.739Z,7.60
2018-06-19T21:36:50.420Z,7.43
2018-06-19T21:39:18.994Z,7.43
2018-06-19T21:41:47.759Z,7.07
2018-06-19T21:44:16.633Z,6.37
2018-06-19T21:46:45.383Z,8.67
2018-06-19T21:49:14.189Z,7.93
2018-06-19T21:51:42.864Z,6.83
2018-06-19T21:54:11.628Z,8.43
2018-06-19T21:56:40.208Z,7.50
2018-06-19T21:59:08.894Z,8.33
2018-06-19T22:01:37.532Z,9.70
2018-06-19T22:04:06.363Z,7.80
2018-06-19T22:06:34.904Z,8.13
2018-06-19T22:09:04.407Z,11.83
2018-06-19T22:11:32.936Z,9.17
2018-06-19T22:14:01.450Z,9.10
2018-06-19T22:16:30.244Z,8.10
2018-06-19T22:18:58.751Z,8.37
2018-06-19T22:21:27.328Z,8.20
2018-06-19T22:23:55.843Z,9.93
2018-06-19T22:26:24.840Z,8.50
2018-06-19T22:28:53.678Z,8.67
2018-06-19T22:31:22.340Z,9.03
2018-06-19T22:33:51.049Z,8.33
2018-06-19T22:36:19.564Z,7.87
2018-06-19T22:38:48.236Z,7.93
2018-06-19T22:41:16.787Z,8.37
2018-06-19T22:43:45.466Z,8.53
2018-06-19T22:46:13.996Z,11.20
2018-06-19T22:48:42.727Z,7.77
2018-06-19T22:51:11.099Z,8.10
2018-06-19T22:53:39.617Z,8.47
2018-06-19T22:56:08.120Z,9.17
2018-06-19T22:58:36.640Z,8.77
2018-06-19T23:01:05.132Z,8.70
2018-06-19T23:03:33.752Z,7.77
2018-06-19T23:06:02.269Z,10.40
2018-06-19T23:08:34.870Z,10.37
2018-06-19T23:11:04.218Z,8.20
2018-06-19T23:13:32.764Z,9.10
2018-06-19T23:16:01.730Z,9.37
2018-06-19T23:18:30.338Z,9.13
2018-06-19T23:20:58.849Z,8.60
2018-06-19T23:23:27.695Z,10.57
2018-06-19T23:25:56.220Z,9.83
2018-06-19T23:28:24.723Z,9.77
2018-06-19T23:30:53.315Z,9.77
2018-06-19T23:33:22.344Z,9.03
2018-06-19T23:35:50.606Z,7.93
2018-06-19T23:38:19.140Z,8.63
2018-06-19T23:40:47.956Z,9.67
2018-06-19T23:43:16.420Z,9.90
2018-06-19T23:45:45.163Z,10.33
2018-06-19T23:48:13.329Z,9.43
2018-06-19T23:50:41.988Z,10.63
2018-06-19T23:53:10.523Z,9.50
2018-06-19T23:55:39.037Z,9.43
2018-06-19T23:58:07.680Z,8.93
